Time;durP1;ratioP1;P1;durP2;ratioP2;P2;SDS_P1;SDS_P2;PMS_P1;PMS_P2;Temp;Humidity;BMP_temperature;BMP_pressure;BME280_temperature;BME280_humidity;BME280_pressure;Samples;Min_cycle;Max_cycle;Signal;HPM_P1;HPM_P2
2021/11/24 00:02:14;;;;;;;;;29.00;26.25;;;;;7.61;58.13;102138.94;4998675;28;46103;-49
2021/11/24 00:04:39;;;;;;;;;39.50;31.50;;;;;7.60;58.25;102127.63;4998953;28;45409;-47
2021/11/24 00:07:05;;;;;;;;;34.75;31.50;;;;;7.59;58.31;102118.00;4995471;28;45278;-50
2021/11/24 00:09:30;;;;;;;;;31.75;26.50;;;;;7.58;58.16;102116.22;5000037;28;45681;-47
2021/11/24 00:11:55;;;;;;;;;27.50;25.75;;;;;7.55;58.39;102110.94;5002428;28;46177;-48
2021/11/24 00:14:20;;;;;;;;;27.75;25.00;;;;;7.55;58.45;102110.94;5002387;28;45426;-50
2021/11/24 00:16:46;;;;;;;;;30.50;27.25;;;;;7.55;58.40;102104.84;5012990;28;45400;-48
2021/11/24 00:19:11;;;;;;;;;40.50;32.50;;;;;7.54;58.40;102106.56;5000603;28;45674;-51
2021/11/24 00:21:37;;;;;;;;;34.25;29.00;;;;;7.53;58.33;102112.63;5000602;28;45531;-47
2021/11/24 00:24:02;;;;;;;;;32.25;28.00;;;;;7.52;58.34;102110.91;5001932;28;45337;-48
2021/11/24 00:26:28;;;;;;;;;30.50;28.25;;;;;7.51;58.37;102108.22;5001481;28;45469;-47
2021/11/24 00:28:53;;;;;;;;;36.25;32.75;;;;;7.49;58.35;102102.97;5001851;28;45328;-49
2021/11/24 00:31:18;;;;;;;;;30.25;24.00;;;;;7.49;58.35;102103.84;5002032;28;45926;-51
2021/11/24 00:33:44;;;;;;;;;27.50;27.50;;;;;7.48;57.99;102095.97;5001829;28;45354;-50
2021/11/24 00:36:09;;;;;;;;;33.75;28.00;;;;;7.46;58.61;102097.69;5002445;28;45249;-51
2021/11/24 00:38:34;;;;;;;;;36.25;33.00;;;;;7.46;58.44;102103.78;5001902;28;45283;-51
2021/11/24 00:41:00;;;;;;;;;36.25;31.25;;;;;7.44;58.44;102097.63;5001828;28;46302;-47
2021/11/24 00:43:27;;;;;;;;;28.50;25.75;;;;;7.45;58.42;102098.53;5001746;28;45461;-49
2021/11/24 00:45:53;;;;;;;;;32.50;27.25;;;;;7.44;58.65;102105.47;5001816;28;45458;-51
2021/11/24 00:48:19;;;;;;;;;31.50;28.75;;;;;7.43;58.52;102101.13;5001821;28;45479;-51
2021/11/24 00:50:44;;;;;;;;;36.75;32.25;;;;;7.42;58.63;102098.47;5001680;28;46312;-51
2021/11/24 00:53:10;;;;;;;;;40.00;33.75;;;;;7.42;58.50;102094.13;5001777;28;45392;-51
2021/11/24 00:55:35;;;;;;;;;40.25;32.50;;;;;7.41;58.83;102092.34;5001755;28;45305;-47
2021/11/24 00:58:00;;;;;;;;;41.75;35.25;;;;;7.39;58.61;102087.94;5000118;28;45384;-48
2021/11/24 01:00:26;;;;;;;;;35.00;32.00;;;;;7.39;58.55;102083.59;5001397;28;45242;-51
2021/11/24 01:02:51;;;;;;;;;43.25;37.50;;;;;7.34;58.74;102080.00;5001359;28;45175;-50
2021/11/24 01:05:17;;;;;;;;;33.75;32.25;;;;;7.38;58.53;102091.41;4999890;28;45312;-51
2021/11/24 01:07:43;;;;;;;;;39.50;35.00;;;;;7.36;58.55;102083.53;5014722;28;45506;-49
2021/11/24 01:10:09;;;;;;;;;32.50;29.75;;;;;7.34;58.62;102080.00;5001497;28;46201;-46
2021/11/24 01:12:36;;;;;;;;;37.00;31.00;;;;;7.32;58.72;102068.66;5001410;28;45464;-47
2021/11/24 01:15:02;;;;;;;;;39.00;33.00;;;;;7.31;58.63;102075.59;5001798;28;45364;-48
2021/11/24 01:17:27;;;;;;;;;32.75;31.75;;;;;7.29;58.66;102066.81;5012552;28;45332;-49
2021/11/24 01:19:52;;;;;;;;;37.75;34.75;;;;;7.27;59.26;102073.78;4999808;28;45993;-47
2021/11/24 01:22:18;;;;;;;;;40.25;36.75;;;;;7.27;58.75;102072.88;5001234;28;45502;-49
2021/11/24 01:24:43;;;;;;;;;40.00;33.75;;;;;7.25;58.64;102066.75;5001510;28;45361;-51
2021/11/24 01:27:08;;;;;;;;;35.00;31.75;;;;;7.23;58.70;102063.19;5001126;28;45369;-49
2021/11/24 01:29:34;;;;;;;;;36.00;32.00;;;;;7.22;58.84;102064.03;5001343;28;46100;-51
2021/11/24 01:31:59;;;;;;;;;34.25;33.50;;;;;7.18;58.85;102057.88;4998664;28;45340;-50
2021/11/24 01:34:25;;;;;;;;;36.50;33.50;;;;;7.17;58.46;102056.13;4999200;28;45491;-48
2021/11/24 01:36:51;;;;;;;;;31.75;29.50;;;;;7.15;58.85;102055.19;5000009;28;45424;-52
2021/11/24 01:39:16;;;;;;;;;28.75;24.25;;;;;7.15;58.71;102055.19;5000279;28;46274;-48
2021/11/24 01:41:42;;;;;;;;;37.50;32.25;;;;;7.13;58.85;102055.19;4999973;28;45442;-50
2021/11/24 01:44:19;;;;;;;;;36.00;34.25;;;;;7.11;58.88;102042.94;5000327;28;45293;-48
2021/11/24 01:46:54;;;;;;;;;41.25;32.25;;;;;7.10;58.86;102047.25;5000030;28;45328;-47
2021/11/24 01:49:21;;;;;;;;;40.00;30.75;;;;;7.07;58.90;102039.38;4995064;28;46201;-49
2021/11/24 01:51:47;;;;;;;;;35.25;29.75;;;;;7.05;58.72;102037.56;4999981;28;45381;-50
2021/11/24 01:54:14;;;;;;;;;34.25;29.25;;;;;7.05;58.78;102048.03;5000046;28;45403;-48
2021/11/24 01:56:39;;;;;;;;;34.25;29.75;;;;;7.03;58.80;102048.00;4999951;28;46210;-47
2021/11/24 01:59:05;;;;;;;;;30.75;28.50;;;;;7.01;58.94;102044.47;4998233;28;47283;-50
2021/11/24 02:01:30;;;;;;;;;43.00;34.00;;;;;6.97;58.97;102032.19;4999604;28;45472;-46
2021/11/24 02:03:55;;;;;;;;;44.50;35.50;;;;;6.98;58.77;102033.91;5000820;28;45509;-52
2021/11/24 02:06:21;;;;;;;;;30.50;26.00;;;;;6.96;58.90;102033.03;4997100;28;45508;-51
2021/11/24 02:08:46;;;;;;;;;30.50;29.25;;;;;6.92;58.76;102032.06;5000553;28;46033;-47
2021/11/24 02:11:11;;;;;;;;;34.50;31.00;;;;;6.93;58.84;102036.47;5000641;28;45439;-50
2021/11/24 02:13:37;;;;;;;;;26.25;25.50;;;;;6.92;58.79;102032.06;5000768;28;45399;-50
2021/11/24 02:16:02;;;;;;;;;31.50;31.25;;;;;6.88;58.84;102021.50;5004884;28;45184;-50
2021/11/24 02:18:28;;;;;;;;;34.25;30.75;;;;;6.88;59.02;102026.75;5006588;28;46031;-46
2021/11/24 02:20:53;;;;;;;;;29.25;26.50;;;;;6.87;58.97;102019.75;5000548;28;45349;-49
2021/11/24 02:23:19;;;;;;;;;9.50;2.75;;;;;6.85;58.79;102022.31;5000995;28;45529;-48
2021/11/24 02:25:45;;;;;;;;;32.75;28.50;;;;;6.84;58.87;102017.94;5000308;28;45626;-49
2021/11/24 02:28:11;;;;;;;;;36.00;32.50;;;;;6.83;59.00;102018.81;5000333;28;46983;-50
2021/11/24 02:30:37;;;;;;;;;26.50;26.25;;;;;6.82;58.96;102019.66;5000257;28;45368;-49
2021/11/24 02:33:02;;;;;;;;;37.00;32.75;;;;;6.80;59.08;102018.72;4999821;28;45258;-51
2021/11/24 02:35:28;;;;;;;;;29.50;25.00;;;;;6.78;58.89;102005.66;5000495;28;45520;-50
2021/11/24 02:37:53;;;;;;;;;29.25;26.25;;;;;6.77;59.10;102014.31;4998983;28;45860;-50
2021/11/24 02:40:19;;;;;;;;;31.50;30.00;;;;;6.77;59.19;102008.22;5000129;28;45519;-49
2021/11/24 02:42:45;;;;;;;;;29.25;27.50;;;;;6.75;59.05;102008.16;5000252;28;45506;-50
2021/11/24 02:45:10;;;;;;;;;32.50;23.00;;;;;6.74;59.20;102005.53;5000323;28;45431;-50
2021/11/24 02:47:39;;;;;;;;;26.75;24.25;;;;;6.71;59.06;101995.91;4998586;28;46310;-50
2021/11/24 02:50:05;;;;;;;;;40.50;34.50;;;;;6.69;59.04;101994.09;5000258;28;45295;-50
2021/11/24 02:52:31;;;;;;;;;31.50;30.50;;;;;6.70;59.16;101995.88;5000109;28;45259;-48
2021/11/24 02:54:59;;;;;;;;;35.00;32.00;;;;;6.69;59.27;101994.97;5000172;28;45470;-51
2021/11/24 02:57:43;;;;;;;;;32.25;28.50;;;;;6.67;59.31;101987.13;4999734;28;46214;-48
2021/11/24 03:00:14;;;;;;;;;39.50;31.50;;;;;6.65;59.14;101983.59;4989092;28;45284;-49
2021/11/24 03:02:39;;;;;;;;;38.25;27.50;;;;;6.64;59.23;101980.94;4999914;28;45244;-50
2021/11/24 03:05:05;;;;;;;;;24.25;20.75;;;;;6.62;59.09;101972.19;4999739;28;45455;-50
2021/11/24 03:07:30;;;;;;;;;35.25;26.75;;;;;6.62;59.26;101974.81;4998663;28;48638;-49
2021/11/24 03:09:56;;;;;;;;;36.50;32.00;;;;;6.60;59.34;101959.13;5000246;28;45212;-51
2021/11/24 03:12:21;;;;;;;;;29.50;25.75;;;;;6.59;59.26;101967.78;5000097;28;45498;-49
2021/11/24 03:14:47;;;;;;;;;35.25;28.25;;;;;6.58;59.21;101955.56;5000271;28;45458;-49
2021/11/24 03:17:12;;;;;;;;;34.75;33.25;;;;;6.55;59.22;101946.78;4999496;28;45374;-49
2021/11/24 03:19:37;;;;;;;;;37.25;30.50;;;;;6.55;59.45;101950.28;4998663;28;45279;-47
2021/11/24 03:22:03;;;;;;;;;27.00;26.25;;;;;6.55;59.35;101949.41;4998670;28;45414;-48
2021/11/24 03:24:28;;;;;;;;;41.00;30.75;;;;;6.55;59.15;101944.19;4999813;28;45319;-49
2021/11/24 03:26:53;;;;;;;;;33.00;27.00;;;;;6.52;59.11;101941.50;4999680;28;46435;-52
2021/11/24 03:29:19;;;;;;;;;31.00;26.25;;;;;6.52;59.21;101941.50;4998715;28;45353;-49
2021/11/24 03:31:44;;;;;;;;;35.50;29.50;;;;;6.51;59.29;101940.63;4999811;28;45378;-51
2021/11/24 03:34:10;;;;;;;;;28.25;25.75;;;;;6.49;59.23;101937.97;4999927;28;45315;-49
2021/11/24 03:36:36;;;;;;;;;33.00;27.00;;;;;6.49;59.19;101939.69;4998313;28;46056;-51
2021/11/24 03:39:03;;;;;;;;;30.00;26.00;;;;;6.49;59.29;101942.28;4999682;28;45357;-48
2021/11/24 03:41:28;;;;;;;;;37.25;32.50;;;;;6.46;59.41;101932.66;4999596;28;45205;-51
2021/11/24 03:43:54;;;;;;;;;38.50;31.75;;;;;6.45;59.45;101935.25;5001388;28;45162;-48
2021/11/24 03:46:19;;;;;;;;;28.75;25.00;;;;;6.45;59.22;101933.53;5002790;28;46651;-51
2021/11/24 03:48:44;;;;;;;;;35.00;32.25;;;;;6.44;59.34;101929.16;5003251;28;45668;-48
2021/11/24 03:51:10;;;;;;;;;33.75;29.50;;;;;6.41;59.40;101918.63;5001833;28;45298;-50
2021/11/24 03:53:40;;;;;;;;;31.25;26.50;;;;;6.41;59.44;101916.03;5003057;28;45288;-50
2021/11/24 03:56:06;;;;;;;;;33.00;30.00;;;;;6.40;59.38;101910.78;5002842;28;46307;-50
2021/11/24 03:58:31;;;;;;;;;32.75;26.75;;;;;6.39;59.48;101917.75;5001595;28;45245;-51
2021/11/24 04:00:56;;;;;;;;;27.00;25.00;;;;;6.38;59.26;101913.34;5002404;28;45316;-51
2021/11/24 04:03:22;;;;;;;;;29.75;26.25;;;;;6.38;59.34;101915.97;5002925;28;45153;-47
2021/11/24 04:05:52;;;;;;;;;34.50;28.50;;;;;6.36;59.29;101915.03;5001185;28;47007;-51
2021/11/24 04:08:17;;;;;;;;;30.50;25.00;;;;;6.36;59.14;101911.56;5002868;28;45382;-50
2021/11/24 04:10:42;;;;;;;;;38.25;34.75;;;;;6.33;59.51;101910.63;5002590;28;45249;-49
2021/11/24 04:13:08;;;;;;;;;35.75;29.25;;;;;6.33;59.56;101912.38;5001579;28;45252;-50
2021/11/24 04:15:33;;;;;;;;;31.75;24.25;;;;;6.32;59.44;101908.88;5002126;28;45990;-51
2021/11/24 04:17:58;;;;;;;;;28.25;25.25;;;;;6.29;59.54;101900.09;5002723;28;45589;-48
2021/11/24 04:20:24;;;;;;;;;28.50;23.50;;;;;6.31;59.68;101895.78;5002607;28;45556;-51
2021/11/24 04:22:49;;;;;;;;;33.50;29.25;;;;;6.31;59.52;101909.75;5002757;28;45296;-49
2021/11/24 04:25:17;;;;;;;;;31.50;27.25;;;;;6.29;59.73;101898.38;5001025;28;47082;-50
2021/11/24 04:27:43;;;;;;;;;29.50;27.00;;;;;6.22;59.67;101887.75;5002568;28;45272;-50
2021/11/24 04:30:09;;;;;;;;;32.00;30.25;;;;;6.29;59.64;101895.75;5002489;28;45715;-51
2021/11/24 04:32:35;;;;;;;;;31.25;26.00;;;;;6.27;59.52;101886.13;5002302;28;45463;-52
2021/11/24 04:35:00;;;;;;;;;29.75;26.25;;;;;6.29;59.59;101889.63;5002313;28;46313;-51
2021/11/24 04:37:26;;;;;;;;;38.50;35.00;;;;;6.29;59.49;101887.03;5002487;28;45283;-48
2021/11/24 04:39:51;;;;;;;;;37.25;31.50;;;;;6.28;59.68;101885.28;5002339;28;45304;-53
2021/11/24 04:42:17;;;;;;;;;33.25;28.50;;;;;6.28;59.73;101887.91;5002154;28;45466;-52
2021/11/24 04:44:42;;;;;;;;;39.50;30.00;;;;;6.27;59.52;101880.91;4997568;28;47064;-50
2021/11/24 04:47:07;;;;;;;;;29.00;28.25;;;;;6.27;59.57;101888.75;4992743;28;45364;-49
2021/11/24 04:49:33;;;;;;;;;36.75;26.25;;;;;6.24;59.76;101881.72;5002346;28;45296;-49
2021/11/24 04:51:58;;;;;;;;;35.75;30.75;;;;;6.25;59.77;101879.97;5002090;28;45493;-48
2021/11/24 04:54:24;;;;;;;;;38.00;28.25;;;;;6.20;59.78;101876.41;5001555;28;46374;-51
2021/11/24 04:56:49;;;;;;;;;32.50;30.00;;;;;6.23;59.64;101887.78;5001688;28;45320;-51
2021/11/24 04:59:15;;;;;;;;;33.00;28.50;;;;;6.21;59.69;101880.78;5000695;28;45328;-49
2021/11/24 05:01:41;;;;;;;;;34.75;26.75;;;;;6.22;59.85;101885.16;5001662;28;45362;-47
2021/11/24 05:04:07;;;;;;;;;35.25;28.50;;;;;6.21;59.59;101886.00;4999474;28;46226;-51
2021/11/24 05:06:32;;;;;;;;;28.25;27.25;;;;;6.20;59.61;101881.63;4999405;28;45331;-50
2021/11/24 05:08:57;;;;;;;;;40.50;36.00;;;;;6.15;59.75;101879.78;5001080;28;45418;-50
2021/11/24 05:11:23;;;;;;;;;67.00;53.50;;;;;6.17;59.89;101878.09;5000458;28;45506;-50
2021/11/24 05:13:55;;;;;;;;;81.75;63.75;;;;;6.16;59.82;101885.88;5000857;28;45407;-51
2021/11/24 05:16:22;;;;;;;;;47.25;40.00;;;;;6.16;59.71;101888.50;5000378;28;45462;-51
2021/11/24 05:18:49;;;;;;;;;27.00;25.25;;;;;6.15;59.90;101881.50;5015946;28;45304;-47
2021/11/24 05:21:25;;;;;;;;;35.00;28.00;;;;;6.14;59.81;101875.41;5000330;28;45255;-50
2021/11/24 05:23:51;;;;;;;;;28.25;25.50;;;;;6.12;59.93;101879.72;5000585;28;46078;-49
2021/11/24 05:26:17;;;;;;;;;36.00;33.75;;;;;6.13;59.66;101881.47;5000565;28;45362;-49
2021/11/24 05:28:43;;;;;;;;;38.25;32.50;;;;;6.13;59.74;101883.22;5000871;28;45344;-51
2021/11/24 05:31:09;;;;;;;;;35.00;34.00;;;;;6.12;59.90;101882.31;5000530;28;45805;-49
2021/11/24 05:33:36;;;;;;;;;50.00;37.75;;;;;6.08;59.82;101875.28;5000186;28;47077;-52
2021/11/24 05:36:03;;;;;;;;;24.00;21.75;;;;;6.11;59.68;101877.97;5000452;28;45396;-51
2021/11/24 05:38:28;;;;;;;;;36.25;28.25;;;;;6.10;59.92;101870.09;5000928;28;45310;-47
2021/11/24 05:40:53;;;;;;;;;43.75;38.25;;;;;6.12;59.82;101874.50;5001217;28;45361;-51
2021/11/24 05:43:21;;;;;;;;;31.25;29.25;;;;;6.13;59.77;101865.81;4996615;28;47197;-51
2021/11/24 05:48:19;;;;;;;;;39.50;31.25;;;;;6.11;59.83;101859.69;5001402;28;45237;-51
2021/11/24 05:50:46;;;;;;;;;33.00;31.00;;;;;6.13;59.81;101854.50;5001298;28;45225;-48
2021/11/24 05:53:14;;;;;;;;;30.25;27.50;;;;;6.13;60.09;101852.75;5001134;28;45360;-52
2021/11/24 05:55:39;;;;;;;;;36.75;29.75;;;;;6.14;59.96;101856.28;5000933;28;45354;-50
2021/11/24 05:58:05;;;;;;;;;34.50;26.50;;;;;6.14;60.25;101864.97;4999845;28;45383;-51
2021/11/24 06:00:31;;;;;;;;;31.25;25.25;;;;;6.13;59.97;101852.75;5000977;28;45292;-50
2021/11/24 06:02:56;;;;;;;;;28.50;25.00;;;;;6.12;60.01;101847.53;5000738;28;45324;-48
2021/11/24 06:05:22;;;;;;;;;37.00;30.00;;;;;6.13;59.99;101855.38;4998438;28;45244;-50
2021/11/24 06:07:47;;;;;;;;;46.25;32.75;;;;;6.15;59.90;101853.69;4998499;28;45497;-48
2021/11/24 06:10:13;;;;;;;;;28.50;25.25;;;;;6.15;60.00;101850.19;4999515;28;45472;-50
2021/11/24 06:12:38;;;;;;;;;37.00;30.50;;;;;6.15;60.14;101845.88;4999415;28;46963;-49
2021/11/24 06:15:05;;;;;;;;;33.25;30.25;;;;;6.17;60.13;101848.50;5001066;28;45297;-51
2021/11/24 06:17:31;;;;;;;;;35.25;27.25;;;;;6.15;60.18;101845.88;4999228;28;45376;-50
2021/11/24 06:19:56;;;;;;;;;32.75;25.75;;;;;6.18;59.96;101845.91;5000872;28;45387;-50
2021/11/24 06:22:22;;;;;;;;;34.75;30.00;;;;;6.21;60.10;101844.22;5000607;28;45316;-51
2021/11/24 06:24:47;;;;;;;;;38.25;31.25;;;;;6.22;60.23;101844.25;5000679;28;45312;-50
2021/11/24 06:27:13;;;;;;;;;25.25;20.50;;;;;6.22;60.08;101841.66;5000754;28;45398;-51
2021/11/24 06:29:39;;;;;;;;;44.00;31.75;;;;;6.21;60.23;101844.22;4999350;28;45441;-50
2021/11/24 06:32:04;;;;;;;;;39.25;36.25;;;;;6.25;60.21;101843.44;5000236;28;46279;-51
2021/11/24 06:34:30;;;;;;;;;32.50;28.00;;;;;6.26;60.14;101839.97;5000606;28;45231;-49
2021/11/24 06:36:56;;;;;;;;;31.00;27.25;;;;;6.27;60.03;101836.53;5000619;28;45372;-50
2021/11/24 06:39:23;;;;;;;;;29.25;27.50;;;;;6.28;60.15;101833.06;5000518;28;45522;-47
2021/11/24 06:41:48;;;;;;;;;46.75;34.50;;;;;6.28;60.11;101835.69;5000181;28;45284;-52
2021/11/24 06:44:14;;;;;;;;;32.75;29.00;;;;;6.30;60.35;101839.19;5000379;28;45227;-52
2021/11/24 06:46:39;;;;;;;;;30.75;25.00;;;;;6.28;60.34;101830.47;5000299;28;45277;-51
2021/11/24 06:49:05;;;;;;;;;29.50;24.75;;;;;6.27;60.24;101813.91;5000540;28;45328;-52
2021/11/24 06:51:31;;;;;;;;;25.75;22.50;;;;;6.31;60.17;101814.84;5000166;28;45292;-49
2021/11/24 06:53:56;;;;;;;;;36.25;30.25;;;;;6.30;60.70;101819.19;5000199;28;45232;-50
2021/11/24 06:56:22;;;;;;;;;27.50;24.50;;;;;6.31;60.24;101820.97;5000237;28;45387;-52
2021/11/24 06:58:47;;;;;;;;;35.25;30.25;;;;;6.29;60.19;101820.03;4998996;28;45527;-52
2021/11/24 07:01:13;;;;;;;;;39.00;31.25;;;;;6.31;60.34;101814.84;4999568;28;46286;-49
2021/11/24 07:03:38;;;;;;;;;28.00;24.75;;;;;6.31;60.25;101822.69;4998980;28;45384;-48
2021/11/24 07:06:03;;;;;;;;;37.75;33.50;;;;;6.30;60.34;101813.09;4996124;28;45307;-48
2021/11/24 07:08:29;;;;;;;;;32.75;28.25;;;;;6.30;60.31;101818.31;5000156;28;45544;-51
2021/11/24 07:10:54;;;;;;;;;27.00;24.75;;;;;6.30;60.24;101823.53;4999662;28;46056;-48
2021/11/24 07:13:19;;;;;;;;;29.75;25.75;;;;;6.26;60.28;101812.13;5000174;28;45336;-50
2021/11/24 07:15:45;;;;;;;;;35.50;27.25;;;;;6.28;60.32;101823.50;4999602;28;45222;-50
2021/11/24 07:18:10;;;;;;;;;41.25;32.25;;;;;6.27;60.21;101818.25;5000673;28;45414;-50
2021/11/24 07:20:35;;;;;;;;;34.50;30.00;;;;;6.26;60.08;101821.72;5003102;28;46806;-50
2021/11/24 07:23:01;;;;;;;;;37.25;34.00;;;;;6.25;60.14;101822.56;5003664;28;45388;-48
2021/11/24 07:25:27;;;;;;;;;35.50;29.50;;;;;6.26;60.21;101824.31;5003393;28;46076;-48
2021/11/24 07:27:52;;;;;;;;;30.25;26.00;;;;;6.25;60.04;101819.94;5003519;28;45310;-51
2021/11/24 07:30:19;;;;;;;;;31.25;25.75;;;;;6.24;60.16;101816.47;5002767;28;46093;-49
2021/11/24 07:32:45;;;;;;;;;43.00;38.50;;;;;6.22;60.19;101806.84;5003099;28;45314;-49
2021/11/24 07:35:11;;;;;;;;;33.00;31.25;;;;;6.21;60.20;101802.47;4998654;28;45254;-47
2021/11/24 07:37:37;;;;;;;;;38.75;32.50;;;;;6.23;60.29;101806.00;4995243;28;45452;-49
2021/11/24 07:40:05;;;;;;;;;38.00;32.25;;;;;6.23;60.30;101801.66;5002846;28;46056;-48
2021/11/24 07:42:30;;;;;;;;;35.00;31.75;;;;;6.19;60.31;101784.16;5003030;28;45249;-49
2021/11/24 07:44:55;;;;;;;;;43.25;35.25;;;;;6.23;60.31;101795.56;5003043;28;45470;-49
2021/11/24 07:47:21;;;;;;;;;42.50;31.25;;;;;6.23;60.28;101793.81;5003120;28;45364;-47
2021/11/24 07:49:46;;;;;;;;;45.75;37.50;;;;;6.21;60.15;101792.03;5001553;28;47156;-49
2021/11/24 07:52:12;;;;;;;;;37.25;28.75;;;;;6.24;60.29;101794.69;5001665;28;45941;-46
2021/11/24 07:54:37;;;;;;;;;38.50;32.00;;;;;6.24;60.39;101800.81;5002854;28;45169;-45
2021/11/24 07:57:03;;;;;;;;;37.75;33.25;;;;;6.24;60.50;101807.72;5003071;28;45293;-46
2021/11/24 07:59:28;;;;;;;;;36.75;32.25;;;;;6.24;60.52;101807.72;5001345;28;46107;-49
2021/11/24 08:01:53;;;;;;;;;29.75;25.25;;;;;6.27;60.38;101815.66;5001074;28;45372;-48
2021/11/24 08:04:19;;;;;;;;;33.25;29.00;;;;;6.29;60.48;101814.81;5002899;28;45215;-46
2021/11/24 08:06:44;;;;;;;;;24.25;23.50;;;;;6.29;60.43;101814.81;4999006;28;45142;-50
2021/11/24 08:09:10;;;;;;;;;36.00;29.00;;;;;6.30;60.40;101819.19;5002425;28;46126;-48
2021/11/24 08:11:35;;;;;;;;;22.50;20.50;;;;;6.29;60.48;101809.59;5002828;28;45415;-50
2021/11/24 08:14:01;;;;;;;;;29.75;24.75;;;;;6.34;60.64;101817.53;5002687;28;45234;-46
2021/11/24 08:16:27;;;;;;;;;34.00;32.00;;;;;6.35;60.44;101808.84;5002585;28;45434;-48
2021/11/24 08:18:52;;;;;;;;;26.50;24.25;;;;;6.35;60.41;101803.59;5002272;28;47246;-50
2021/11/24 08:21:18;;;;;;;;;32.50;27.25;;;;;6.38;60.40;101803.69;5017659;28;45403;-49
2021/11/24 08:23:43;;;;;;;;;30.50;27.00;;;;;6.39;60.59;101804.56;4997691;28;45253;-47
2021/11/24 08:26:09;;;;;;;;;32.00;28.75;;;;;6.41;60.64;101800.25;4992707;28;45381;-46
2021/11/24 08:28:34;;;;;;;;;25.50;25.00;;;;;6.41;60.50;101800.25;5002374;28;45975;-50
2021/11/24 08:30:59;;;;;;;;;53.75;42.50;;;;;6.41;60.62;101800.25;4999963;28;45392;-50
2021/11/24 08:33:25;;;;;;;;;46.75;36.25;;;;;6.46;60.63;101807.31;5002387;28;45364;-50
2021/11/24 08:35:50;;;;;;;;;35.50;27.75;;;;;6.49;60.57;101801.28;5002422;28;45657;-49
2021/11/24 08:38:17;;;;;;;;;38.25;32.50;;;;;6.50;60.67;101800.44;5002037;28;46068;-47
2021/11/24 08:40:43;;;;;;;;;29.50;28.50;;;;;6.53;60.62;101797.91;5002011;28;45393;-50
2021/11/24 08:43:09;;;;;;;;;35.00;30.50;;;;;6.54;60.49;101796.16;5002154;28;45248;-49
2021/11/24 08:45:34;;;;;;;;;41.25;29.00;;;;;6.54;60.65;101785.69;5001969;28;45515;-47
2021/11/24 08:48:02;;;;;;;;;35.75;31.25;;;;;6.57;60.50;101793.63;5002012;28;46276;-49
2021/11/24 08:50:28;;;;;;;;;42.25;32.50;;;;;6.60;60.67;101789.34;5001998;28;45281;-48
2021/11/24 08:52:54;;;;;;;;;38.25;33.25;;;;;6.61;60.51;101784.97;5000783;28;45392;-51
2021/11/24 08:55:20;;;;;;;;;39.25;32.00;;;;;6.65;60.84;101784.19;5001964;28;45467;-50
2021/11/24 08:57:47;;;;;;;;;33.75;27.50;;;;;6.67;60.73;101778.13;5000382;28;45986;-51
2021/11/24 09:00:14;;;;;;;;;32.75;32.25;;;;;6.71;60.80;101773.84;5001725;28;45249;-47
2021/11/24 09:02:42;;;;;;;;;30.50;28.75;;;;;6.73;60.74;101760.81;5001826;28;45236;-50
2021/11/24 09:05:08;;;;;;;;;32.75;28.75;;;;;6.74;60.65;101760.84;5001043;28;45348;-50
2021/11/24 09:07:34;;;;;;;;;26.00;26.00;;;;;6.76;60.77;101760.88;4998595;28;46174;-47
2021/11/24 09:10:01;;;;;;;;;32.50;28.50;;;;;6.80;60.66;101768.78;5001846;28;45494;-51
2021/11/24 09:12:27;;;;;;;;;35.75;29.75;;;;;6.82;60.56;101750.53;5001743;28;45327;-50
2021/11/24 09:14:52;;;;;;;;;29.00;26.75;;;;;6.85;60.87;101749.69;5001827;28;45470;-51
2021/11/24 09:17:18;;;;;;;;;30.50;26.50;;;;;6.87;61.02;101758.44;5001206;28;45418;-50
2021/11/24 09:19:45;;;;;;;;;26.00;24.00;;;;;6.88;60.77;101754.97;5001602;28;45253;-50
2021/11/24 09:22:11;;;;;;;;;32.25;28.50;;;;;6.90;60.66;101748.91;5001623;28;45292;-51
2021/11/24 09:24:37;;;;;;;;;36.25;30.00;;;;;6.93;60.84;101756.81;5001329;28;45433;-48
2021/11/24 09:27:11;;;;;;;;;33.25;28.75;;;;;6.95;60.70;101749.00;5001444;28;45312;-49
2021/11/24 09:29:36;;;;;;;;;35.50;31.50;;;;;6.96;60.89;101754.25;5001594;28;45316;-49
2021/11/24 09:32:04;;;;;;;;;31.25;29.00;;;;;6.98;60.92;101746.44;5001177;28;45507;-50
2021/11/24 09:34:31;;;;;;;;;32.00;26.25;;;;;6.99;60.64;101749.09;5001551;28;45404;-51
2021/11/24 09:36:57;;;;;;;;;34.50;27.50;;;;;7.02;60.74;101747.34;5001237;28;46158;-51
2021/11/24 09:39:22;;;;;;;;;34.75;28.75;;;;;7.03;60.81;101739.56;5001153;28;45382;-51
2021/11/24 09:41:49;;;;;;;;;36.75;33.50;;;;;7.05;60.69;101739.59;5000973;28;45372;-49
2021/11/24 09:44:14;;;;;;;;;34.50;28.25;;;;;7.06;60.88;101731.75;5001366;28;45467;-46
2021/11/24 09:46:43;;;;;;;;;28.00;26.25;;;;;7.07;60.77;101733.53;5000898;28;45311;-50
2021/11/24 09:49:10;;;;;;;;;32.50;28.50;;;;;7.08;60.91;101732.69;5001086;28;45351;-51
2021/11/24 09:51:36;;;;;;;;;30.25;28.00;;;;;7.14;60.67;101732.78;5001181;28;45332;-51
2021/11/24 09:54:03;;;;;;;;;34.50;29.50;;;;;7.14;60.78;101727.53;5000953;28;45598;-50
2021/11/24 09:56:30;;;;;;;;;32.50;26.50;;;;;7.19;60.88;101739.81;5001147;28;46969;-50
2021/11/24 09:58:55;;;;;;;;;29.25;26.75;;;;;7.21;60.62;101728.50;4999644;28;45253;-51
2021/11/24 10:01:22;;;;;;;;;30.50;29.25;;;;;7.24;60.88;101732.91;4999159;28;45491;-51
2021/11/24 10:03:48;;;;;;;;;33.25;27.75;;;;;7.26;60.89;101724.22;5001095;28;45435;-51
2021/11/24 10:06:14;;;;;;;;;35.75;31.25;;;;;7.30;60.78;101736.47;4996757;28;46328;-51
2021/11/24 10:08:40;;;;;;;;;33.75;29.50;;;;;7.33;60.65;101727.81;4999630;28;45439;-49
2021/11/24 10:11:06;;;;;;;;;32.75;29.25;;;;;7.37;60.65;101731.34;5000784;28;45485;-51
2021/11/24 10:13:32;;;;;;;;;32.50;26.25;;;;;7.38;60.68;101726.13;5001041;28;45324;-51
2021/11/24 10:15:58;;;;;;;;;34.00;26.75;;;;;7.42;60.73;101721.84;5000344;28;46049;-51
2021/11/24 10:18:23;;;;;;;;;29.50;27.00;;;;;7.46;60.84;101721.03;5000914;28;45400;-51
2021/11/24 10:21:02;;;;;;;;;36.50;32.25;;;;;7.48;60.74;101716.69;5000737;28;45234;-51
2021/11/24 10:23:31;;;;;;;;;32.00;29.00;;;;;7.54;60.57;101711.56;4999601;28;45397;-48
2021/11/24 10:26:27;;;;;;;;;40.00;32.75;;;;;7.59;60.44;101706.38;4999180;28;47182;-46
2021/11/24 10:29:09;;;;;;;;;28.75;25.00;;;;;7.62;61.01;101702.09;5000387;28;45246;-47
2021/11/24 10:31:47;;;;;;;;;38.25;32.25;;;;;7.68;60.87;101706.50;5000393;28;45316;-47
2021/11/24 10:34:30;;;;;;;;;30.00;28.25;;;;;7.72;60.78;101700.47;5000689;28;45564;-47
2021/11/24 10:37:07;;;;;;;;;26.25;25.00;;;;;7.77;60.96;101698.78;5000195;28;46198;-48
2021/11/24 10:39:34;;;;;;;;;26.50;23.25;;;;;7.84;60.86;101693.63;5000245;28;45252;-46
2021/11/24 10:42:10;;;;;;;;;35.75;29.75;;;;;7.87;60.93;101689.28;5000417;28;45302;-50
2021/11/24 10:44:37;;;;;;;;;37.00;31.50;;;;;7.92;60.96;101694.59;5000232;28;45384;-50
2021/11/24 10:47:07;;;;;;;;;31.50;28.25;;;;;7.96;60.98;101685.91;5000329;28;45367;-48
2021/11/24 10:49:42;;;;;;;;;32.75;30.50;;;;;8.01;60.87;101684.22;5000139;28;45197;-49
2021/11/24 10:52:16;;;;;;;;;34.50;29.25;;;;;8.04;60.75;101671.19;4999014;28;45451;-49
2021/11/24 10:54:43;;;;;;;;;34.50;29.50;;;;;8.09;60.96;101664.25;4999695;28;45290;-50
2021/11/24 10:57:11;;;;;;;;;39.00;32.75;;;;;8.18;60.76;101662.59;5000469;28;45232;-50
2021/11/24 10:59:44;;;;;;;;;34.00;30.00;;;;;8.22;60.93;101653.91;4998476;28;45352;-50
2021/11/24 11:02:22;;;;;;;;;32.25;29.25;;;;;8.29;60.91;101655.75;4999884;28;45472;-49
2021/11/24 11:05:21;;;;;;;;;33.25;32.00;;;;;8.34;60.85;101648.81;4988127;28;45474;-50
2021/11/24 11:07:50;;;;;;;;;29.00;27.75;;;;;8.40;61.00;101641.00;4999691;28;46343;-50
2021/11/24 11:10:22;;;;;;;;;22.75;22.50;;;;;8.47;60.61;101638.47;4999754;28;45464;-49
2021/11/24 11:12:52;;;;;;;;;31.25;27.25;;;;;8.52;60.73;101636.78;4987316;28;45366;-47
2021/11/24 11:15:22;;;;;;;;;35.50;28.50;;;;;8.57;60.95;101628.06;4999665;28;45538;-49
2021/11/24 11:17:49;;;;;;;;;39.25;34.00;;;;;8.64;61.15;101620.25;4998854;28;46356;-50